createdAt,value
2019-02-24T00:00:43.339Z,15.97
2019-02-24T00:03:09.584Z,16.20
2019-02-24T00:05:37.001Z,15.90
2019-02-24T00:08:03.448Z,15.83
2019-02-24T00:10:29.590Z,15.80
2019-02-24T00:12:55.815Z,15.60
2019-02-24T00:15:22.032Z,16.07
2019-02-24T00:17:48.117Z,15.60
2019-02-24T00:20:18.298Z,15.40
2019-02-24T00:22:44.541Z,15.60
2019-02-24T00:25:15.417Z,17.03
2019-02-24T00:27:41.821Z,16.30
2019-02-24T00:30:16.714Z,16.07
2019-02-24T00:32:42.986Z,15.67
2019-02-24T00:35:14.604Z,16.57
2019-02-24T00:37:41.068Z,16.00
2019-02-24T00:40:07.372Z,16.83
2019-02-24T00:42:33.564Z,16.80
2019-02-24T00:44:59.889Z,17.60
2019-02-24T00:47:26.206Z,17.43
2019-02-24T00:49:54.044Z,17.40
2019-02-24T00:52:20.530Z,16.40
2019-02-24T00:54:46.984Z,16.80
2019-02-24T00:57:13.304Z,16.90
2019-02-24T00:59:39.524Z,17.60
2019-02-24T01:02:05.833Z,17.27
2019-02-24T01:04:31.983Z,17.83
2019-02-24T01:06:58.259Z,17.67
2019-02-24T01:09:24.736Z,17.33
2019-02-24T01:11:51.028Z,17.37
2019-02-24T01:14:17.287Z,17.80
2019-02-24T01:16:43.558Z,18.10
2019-02-24T01:19:09.761Z,17.07
2019-02-24T01:21:36.192Z,17.17
2019-02-24T01:24:08.568Z,17.70
2019-02-24T01:26:34.953Z,16.67
2019-02-24T01:29:09.120Z,17.67
2019-02-24T01:31:35.479Z,17.17
2019-02-24T01:34:02.254Z,17.70
2019-02-24T01:36:29.731Z,17.03
2019-02-24T01:38:55.951Z,17.20
2019-02-24T01:41:22.259Z,16.77
2019-02-24T01:43:48.586Z,16.33
2019-02-24T01:46:14.925Z,16.40
2019-02-24T01:48:41.092Z,16.60
2019-02-24T01:51:07.345Z,17.83
2019-02-24T01:53:33.615Z,18.40
2019-02-24T01:55:59.902Z,16.50
2019-02-24T01:58:34.631Z,17.23
2019-02-24T02:00:54.581Z,15.97
2019-02-24T02:03:20.912Z,17.40
2019-02-24T02:05:47.145Z,16.70
2019-02-24T02:08:13.302Z,15.97
2019-02-24T02:10:39.550Z,17.20
2019-02-24T02:13:16.070Z,16.60
2019-02-24T02:15:42.230Z,16.83
2019-02-24T02:18:08.464Z,17.20
2019-02-24T02:20:34.756Z,17.00
2019-02-24T02:23:08.500Z,16.33
2019-02-24T02:25:34.920Z,16.93
2019-02-24T02:28:06.291Z,16.90
2019-02-24T02:30:32.564Z,16.80
2019-02-24T02:32:58.753Z,17.03
2019-02-24T02:35:24.883Z,16.80
2019-02-24T02:37:50.984Z,16.80
2019-02-24T02:40:20.535Z,16.63
2019-02-24T02:42:46.658Z,17.43
2019-02-24T02:45:12.875Z,17.17
2019-02-24T02:47:39.325Z,15.73
2019-02-24T02:50:05.664Z,16.73
2019-02-24T02:52:31.960Z,16.73
2019-02-24T02:54:59.846Z,17.17
2019-02-24T02:57:25.939Z,17.07
2019-02-24T02:59:52.176Z,17.60
2019-02-24T03:02:24.416Z,17.10
2019-02-24T03:04:46.662Z,17.93
2019-02-24T03:07:20.635Z,18.13
2019-02-24T03:09:49.565Z,16.77
2019-02-24T03:12:15.802Z,17.00
2019-02-24T03:14:41.908Z,16.13
2019-02-24T03:17:08.320Z,17.53
2019-02-24T03:19:34.404Z,16.37
2019-02-24T03:24:40.237Z,17.00
2019-02-24T03:27:06.569Z,17.33
2019-02-24T03:29:32.913Z,17.13
2019-02-24T03:31:59.323Z,17.73
2019-02-24T03:34:25.673Z,18.03
2019-02-24T03:36:51.994Z,17.47
2019-02-24T03:39:19.426Z,17.83
2019-02-24T03:41:45.546Z,17.03
2019-02-24T03:44:11.782Z,17.20
2019-02-24T03:46:37.914Z,19.07
2019-02-24T03:49:04.138Z,17.80
2019-02-24T03:51:30.256Z,18.10
2019-02-24T03:53:56.834Z,17.80
2019-02-24T03:56:23.091Z,17.73
2019-02-24T03:58:49.306Z,19.27
2019-02-24T04:01:15.696Z,18.70
2019-02-24T04:03:41.894Z,18.77
2019-02-24T04:06:07.998Z,19.37
2019-02-24T04:08:34.108Z,19.13
2019-02-24T04:11:00.235Z,20.67
2019-02-24T04:13:26.413Z,20.27
2019-02-24T04:15:52.701Z,18.27
2019-02-24T04:18:18.953Z,19.10
2019-02-24T04:20:45.126Z,19.20
2019-02-24T04:23:11.547Z,19.30
2019-02-24T04:25:37.760Z,19.40
2019-02-24T04:28:03.899Z,19.60
2019-02-24T04:30:30.137Z,19.00
2019-02-24T04:32:56.252Z,18.60
2019-02-24T04:35:22.374Z,19.33
2019-02-24T04:37:48.510Z,19.83
2019-02-24T04:40:14.741Z,18.93
2019-02-24T04:42:40.997Z,19.30
2019-02-24T04:45:07.260Z,18.13
2019-02-24T04:47:34.466Z,18.63
2019-02-24T04:50:00.712Z,19.13
2019-02-24T04:52:26.981Z,19.83
2019-02-24T04:54:53.303Z,20.20
2019-02-24T04:57:19.513Z,20.00
2019-02-24T04:59:45.585Z,21.07
2019-02-24T05:02:11.787Z,19.93
2019-02-24T05:04:37.963Z,20.33
2019-02-24T05:07:04.123Z,18.43
2019-02-24T05:09:30.398Z,18.40
2019-02-24T05:11:56.507Z,19.37
2019-02-24T05:14:22.600Z,18.60
2019-02-24T05:16:48.891Z,20.20
2019-02-24T05:19:15.218Z,20.20
2019-02-24T05:21:41.311Z,19.97
2019-02-24T05:24:07.647Z,19.93
2019-02-24T05:26:34.134Z,20.57
2019-02-24T05:29:00.374Z,20.53
2019-02-24T05:31:26.620Z,21.37
2019-02-24T05:33:52.792Z,20.87
2019-02-24T05:36:19.203Z,20.67
2019-02-24T05:38:45.553Z,18.20
2019-02-24T05:41:11.774Z,19.97
2019-02-24T05:43:37.872Z,20.40
2019-02-24T05:46:04.206Z,19.73
2019-02-24T05:48:30.453Z,19.60
2019-02-24T05:50:56.767Z,19.87
2019-02-24T05:53:22.916Z,20.10
2019-02-24T05:55:49.014Z,21.50
2019-02-24T05:58:15.252Z,20.77
2019-02-24T06:00:41.416Z,19.93
2019-02-24T06:03:07.701Z,19.73
2019-02-24T06:05:33.972Z,20.33
2019-02-24T06:08:01.424Z,21.27
2019-02-24T06:10:27.517Z,18.87
2019-02-24T06:12:53.778Z,20.80
2019-02-24T06:15:19.921Z,21.43
2019-02-24T06:17:46.114Z,20.03
2019-02-24T06:20:12.330Z,20.03
2019-02-24T06:22:38.757Z,20.97
2019-02-24T06:25:04.939Z,21.87
2019-02-24T06:27:31.125Z,21.80
2019-02-24T06:30:04.534Z,20.33
2019-02-24T06:32:26.266Z,20.10
2019-02-24T06:34:52.587Z,21.53
2019-02-24T06:37:18.722Z,21.07
2019-02-24T06:39:44.865Z,20.17
2019-02-24T06:42:11.057Z,20.17
2019-02-24T06:44:37.136Z,21.23
2019-02-24T06:47:03.618Z,21.40
2019-02-24T06:49:29.715Z,21.53
2019-02-24T06:51:57.012Z,21.33
2019-02-24T06:54:23.116Z,20.13
2019-02-24T06:56:49.519Z,20.87
2019-02-24T06:59:15.661Z,21.00
2019-02-24T07:01:41.861Z,21.40
2019-02-24T07:04:08.040Z,20.90
2019-02-24T07:06:34.323Z,21.23
2019-02-24T07:09:00.513Z,21.63
2019-02-24T07:11:26.646Z,22.03
2019-02-24T07:13:52.848Z,21.40
2019-02-24T07:16:19.199Z,21.00
2019-02-24T07:18:45.320Z,20.67
2019-02-24T07:21:11.462Z,20.27
2019-02-24T07:23:37.582Z,20.07
2019-02-24T07:26:03.915Z,17.97
2019-02-24T07:28:30.116Z,17.30
2019-02-24T07:30:56.294Z,16.40
2019-02-24T07:33:22.541Z,16.57
2019-02-24T07:35:49.033Z,15.87
2019-02-24T07:38:15.377Z,15.03
2019-02-24T07:40:41.493Z,14.77
2019-02-24T07:43:07.612Z,14.60
2019-02-24T07:45:33.939Z,15.17
2019-02-24T07:48:00.472Z,15.50
2019-02-24T07:50:26.639Z,14.00
2019-02-24T07:52:52.893Z,16.20
2019-02-24T07:55:19.087Z,14.73
2019-02-24T07:57:45.313Z,20.20
2019-02-24T08:00:11.645Z,16.07
2019-02-24T08:02:37.928Z,14.83
2019-02-24T08:05:05.998Z,14.83
2019-02-24T08:07:32.245Z,14.30
2019-02-24T08:09:58.554Z,13.83
2019-02-24T08:12:24.801Z,13.77
2019-02-24T08:14:50.900Z,15.20
2019-02-24T08:17:17.036Z,14.70
2019-02-24T08:19:43.265Z,13.60
2019-02-24T08:22:09.374Z,13.10
2019-02-24T08:24:35.612Z,14.00
2019-02-24T08:27:01.876Z,13.43
2019-02-24T08:29:29.516Z,13.33
2019-02-24T08:31:56.212Z,13.37
2019-02-24T08:34:22.323Z,13.87
2019-02-24T08:36:48.693Z,13.63
2019-02-24T08:39:14.806Z,13.27
2019-02-24T08:41:40.948Z,12.30
2019-02-24T08:44:07.258Z,13.97
2019-02-24T08:46:33.442Z,13.10
2019-02-24T08:48:59.753Z,14.27
2019-02-24T08:51:26.057Z,13.97
2019-02-24T08:53:52.182Z,14.30
2019-02-24T08:56:18.412Z,13.87
2019-02-24T08:58:44.720Z,13.73
2019-02-24T09:01:11.032Z,13.07
2019-02-24T09:03:37.253Z,13.33
2019-02-24T09:06:03.554Z,13.80
2019-02-24T09:08:29.701Z,13.10
2019-02-24T09:10:55.837Z,12.50
2019-02-24T09:13:22.174Z,13.70
2019-02-24T09:15:48.481Z,13.17
2019-02-24T09:18:14.854Z,12.90
2019-02-24T09:20:41.210Z,13.00
2019-02-24T09:23:16.848Z,13.20
2019-02-24T09:25:58.992Z,13.13
2019-02-24T09:28:31.209Z,12.97
2019-02-24T09:31:00.761Z,14.20
2019-02-24T09:33:25.554Z,13.77
2019-02-24T09:35:51.924Z,13.60
2019-02-24T09:38:19.411Z,13.03
2019-02-24T09:40:45.643Z,13.30
2019-02-24T09:43:11.916Z,12.57
2019-02-24T09:45:38.161Z,12.27
2019-02-24T09:48:04.433Z,12.43
2019-02-24T09:50:30.661Z,12.60
2019-02-24T09:52:56.894Z,13.33
2019-02-24T09:55:23.063Z,12.80
2019-02-24T09:57:49.269Z,12.93
2019-02-24T10:00:15.687Z,12.57
2019-02-24T10:02:42.158Z,12.47
2019-02-24T10:05:08.287Z,12.87
2019-02-24T10:07:34.438Z,15.47
2019-02-24T10:10:00.642Z,12.23
2019-02-24T10:12:27.052Z,11.43
2019-02-24T10:14:53.184Z,11.63
2019-02-24T10:17:19.516Z,11.87
2019-02-24T10:19:45.858Z,11.90
2019-02-24T10:22:12.188Z,10.87
2019-02-24T10:24:38.526Z,11.27
2019-02-24T10:27:04.855Z,11.30
2019-02-24T10:29:31.109Z,11.10
2019-02-24T10:31:57.431Z,10.00
2019-02-24T10:34:23.687Z,11.43
2019-02-24T10:36:49.919Z,12.30
2019-02-24T10:39:16.037Z,11.87
2019-02-24T10:41:42.257Z,10.30
2019-02-24T10:44:08.381Z,10.80
2019-02-24T10:46:34.583Z,11.80
2019-02-24T10:49:03.367Z,11.83
2019-02-24T10:51:28.849Z,11.87
2019-02-24T10:53:55.238Z,12.40
2019-02-24T10:56:21.591Z,12.63
2019-02-24T10:58:47.808Z,11.37
2019-02-24T11:01:14.162Z,11.93
2019-02-24T11:03:40.416Z,10.87
2019-02-24T11:06:06.753Z,11.37
2019-02-24T11:08:33.128Z,11.77
2019-02-24T11:10:59.283Z,11.00
2019-02-24T11:13:25.668Z,12.67
2019-02-24T11:15:52.213Z,11.90
2019-02-24T11:18:18.814Z,12.40
2019-02-24T11:20:45.143Z,12.13
2019-02-24T11:23:11.442Z,12.30
2019-02-24T11:25:38.809Z,12.07
2019-02-24T11:28:05.228Z,11.63
2019-02-24T11:30:31.612Z,11.03
2019-02-24T11:32:58.008Z,10.80
2019-02-24T11:35:24.319Z,10.73
2019-02-24T11:37:50.579Z,10.33
2019-02-24T11:40:17.375Z,10.80
2019-02-24T11:42:43.752Z,9.70
2019-02-24T11:45:10.134Z,9.57
2019-02-24T11:47:36.419Z,9.80
2019-02-24T11:50:05.323Z,9.80
2019-02-24T11:52:32.585Z,10.33
2019-02-24T11:54:58.933Z,9.60
2019-02-24T11:57:25.473Z,9.30
2019-02-24T11:59:51.529Z,8.77
2019-02-24T12:02:17.758Z,8.10
2019-02-24T12:04:44.019Z,9.50
2019-02-24T12:07:10.326Z,9.80
2019-02-24T12:09:36.590Z,10.73
2019-02-24T12:12:06.173Z,10.57
2019-02-24T12:14:32.380Z,9.73
2019-02-24T12:16:58.736Z,9.70
2019-02-24T12:19:25.194Z,10.53
2019-02-24T12:21:51.644Z,10.37
2019-02-24T12:24:17.841Z,9.77
2019-02-24T12:26:47.684Z,10.00
2019-02-24T12:29:13.837Z,10.07
2019-02-24T12:31:45.400Z,8.47
2019-02-24T12:34:11.586Z,8.30
2019-02-24T12:36:37.997Z,7.93
2019-02-24T12:39:05.118Z,9.47
2019-02-24T12:41:33.222Z,9.13
2019-02-24T12:43:59.363Z,9.57
2019-02-24T12:46:25.690Z,11.00
2019-02-24T12:48:52.150Z,10.53
2019-02-24T12:51:18.466Z,11.47
2019-02-24T12:53:45.121Z,10.67
2019-02-24T12:56:11.483Z,10.63
2019-02-24T12:58:37.719Z,11.03
2019-02-24T13:01:06.550Z,10.63
2019-02-24T13:03:32.919Z,10.83
2019-02-24T13:05:59.214Z,10.63
2019-02-24T13:08:25.690Z,10.50
2019-02-24T13:10:51.894Z,10.17
2019-02-24T13:13:18.228Z,9.23
2019-02-24T13:15:46.287Z,9.07
2019-02-24T13:18:15.778Z,9.70
2019-02-24T13:20:42.117Z,8.77
2019-02-24T13:23:08.985Z,8.67
2019-02-24T13:25:36.431Z,9.20
2019-02-24T13:28:05.920Z,9.80
2019-02-24T13:30:32.158Z,9.07
2019-02-24T13:32:58.417Z,8.73
2019-02-24T13:35:25.018Z,8.97
2019-02-24T13:37:51.167Z,8.10
2019-02-24T13:40:17.605Z,8.47
2019-02-24T13:42:43.861Z,9.10
2019-02-24T13:45:17.539Z,9.33
2019-02-24T13:47:43.980Z,9.10
2019-02-24T13:50:13.855Z,9.27
2019-02-24T13:52:40.291Z,8.20
2019-02-24T13:55:09.233Z,8.13
2019-02-24T13:57:35.392Z,8.60
2019-02-24T14:00:12.392Z,8.70
2019-02-24T14:02:40.530Z,8.83
2019-02-24T14:05:08.384Z,8.70
2019-02-24T14:07:34.805Z,8.93
2019-02-24T14:10:09.434Z,7.90
2019-02-24T14:12:35.776Z,8.67
2019-02-24T14:15:09.982Z,7.67
2019-02-24T14:17:37.274Z,8.20
2019-02-24T14:20:09.741Z,8.83
2019-02-24T14:22:36.067Z,8.30
2019-02-24T14:25:07.773Z,8.47
2019-02-24T14:27:33.937Z,8.07
2019-02-24T14:30:00.291Z,8.20
2019-02-24T14:32:32.832Z,8.70
2019-02-24T14:34:55.948Z,8.90
2019-02-24T14:37:22.370Z,8.60
2019-02-24T14:39:48.651Z,9.07
2019-02-24T14:42:18.226Z,8.30
2019-02-24T14:44:44.718Z,8.73
2019-02-24T14:47:10.959Z,8.80
2019-02-24T14:49:37.236Z,8.90
2019-02-24T14:52:03.839Z,9.20
2019-02-24T14:54:30.208Z,8.90
2019-02-24T14:56:56.444Z,9.17
2019-02-24T14:59:22.677Z,9.10
2019-02-24T15:01:48.826Z,8.80
2019-02-24T15:04:14.899Z,9.03
2019-02-24T15:06:41.275Z,8.93
2019-02-24T15:09:08.271Z,8.83
2019-02-24T15:11:34.898Z,8.80
2019-02-24T15:14:01.106Z,9.43
2019-02-24T15:16:27.401Z,8.97
2019-02-24T15:18:53.643Z,9.17
2019-02-24T15:21:20.412Z,11.10
2019-02-24T15:23:46.710Z,10.30
2019-02-24T15:26:13.068Z,9.57
2019-02-24T15:28:39.397Z,8.47
2019-02-24T15:31:07.724Z,8.03
2019-02-24T15:33:33.986Z,7.47
2019-02-24T15:36:00.300Z,7.70
2019-02-24T15:38:26.620Z,8.00
2019-02-24T15:40:52.889Z,7.17
2019-02-24T15:43:19.089Z,7.97
2019-02-24T15:45:45.422Z,8.03
2019-02-24T15:48:11.758Z,8.43
2019-02-24T15:50:37.994Z,8.97
2019-02-24T15:53:04.383Z,7.90
2019-02-24T15:55:30.716Z,8.20
2019-02-24T15:57:57.135Z,8.33
2019-02-24T16:00:24.068Z,9.23
2019-02-24T16:02:50.391Z,8.50
2019-02-24T16:05:16.627Z,9.20
2019-02-24T16:07:42.995Z,8.73
2019-02-24T16:10:15.822Z,8.57
2019-02-24T16:12:42.138Z,8.23
2019-02-24T16:15:11.620Z,8.77
2019-02-24T16:17:37.966Z,9.93
2019-02-24T16:20:07.944Z,9.30
2019-02-24T16:22:34.298Z,9.33
2019-02-24T16:25:00.531Z,9.27
2019-02-24T16:27:26.781Z,8.93
2019-02-24T16:29:53.127Z,8.97
2019-02-24T16:32:19.301Z,10.20
2019-02-24T16:34:46.562Z,9.03
2019-02-24T16:37:12.950Z,9.23
2019-02-24T16:39:39.216Z,8.90
2019-02-24T16:42:06.717Z,9.47
2019-02-24T16:44:33.092Z,10.20
2019-02-24T16:46:59.630Z,9.50
2019-02-24T16:49:25.743Z,9.33
2019-02-24T16:51:51.982Z,8.57
2019-02-24T16:54:18.351Z,8.60
2019-02-24T16:56:44.587Z,9.00
2019-02-24T16:59:10.932Z,9.10
2019-02-24T17:01:37.063Z,9.03
2019-02-24T17:04:03.543Z,8.90
2019-02-24T17:06:29.824Z,9.00
2019-02-24T17:09:02.543Z,9.13
2019-02-24T17:11:24.265Z,9.83
2019-02-24T17:13:50.857Z,9.40
2019-02-24T17:16:17.141Z,9.30
2019-02-24T17:18:43.559Z,10.27
2019-02-24T17:21:09.801Z,11.10
2019-02-24T17:23:36.128Z,12.13
2019-02-24T17:26:02.693Z,11.80
2019-02-24T17:28:28.968Z,9.10
2019-02-24T17:30:55.275Z,10.20
2019-02-24T17:33:29.796Z,9.90
2019-02-24T17:35:49.962Z,9.03
2019-02-24T17:38:16.341Z,9.57
2019-02-24T17:40:42.723Z,9.73
2019-02-24T17:43:08.964Z,9.53
2019-02-24T17:45:35.246Z,10.20
2019-02-24T17:48:01.581Z,11.33
2019-02-24T17:50:28.151Z,10.23
2019-02-24T17:52:54.593Z,12.67
2019-02-24T17:55:21.152Z,10.60
2019-02-24T17:57:47.567Z,12.60
2019-02-24T18:00:25.950Z,12.27
2019-02-24T18:02:52.273Z,11.83
2019-02-24T18:05:18.638Z,12.60
2019-02-24T18:07:45.123Z,13.87
2019-02-24T18:10:11.549Z,13.07
2019-02-24T18:12:37.799Z,12.33
2019-02-24T18:15:08.490Z,11.57
2019-02-24T18:17:34.849Z,12.67
2019-02-24T18:20:01.311Z,14.03
2019-02-24T18:22:27.658Z,14.33
2019-02-24T18:25:02.716Z,14.00
2019-02-24T18:27:23.834Z,13.83
2019-02-24T18:29:51.148Z,13.20
2019-02-24T18:32:17.622Z,12.77
2019-02-24T18:34:44.164Z,13.83
2019-02-24T18:37:10.571Z,16.47
2019-02-24T18:39:36.907Z,14.13
2019-02-24T18:42:05.010Z,13.13
2019-02-24T18:44:31.386Z,14.13
2019-02-24T18:46:57.605Z,12.57
2019-02-24T18:49:25.771Z,12.97
2019-02-24T18:51:52.076Z,12.80
2019-02-24T18:54:18.430Z,14.90
2019-02-24T18:56:44.747Z,21.33
2019-02-24T18:59:11.105Z,24.67
2019-02-24T19:01:37.336Z,23.00
2019-02-24T19:04:03.680Z,20.93
2019-02-24T19:06:38.768Z,37.13
2019-02-24T19:08:58.278Z,29.93
2019-02-24T19:11:24.646Z,20.30
2019-02-24T19:13:50.926Z,27.80
2019-02-24T19:16:17.146Z,22.23
2019-02-24T19:18:44.812Z,21.03
2019-02-24T19:21:12.285Z,22.63
2019-02-24T19:23:38.573Z,20.90
2019-02-24T19:26:04.899Z,21.70
2019-02-24T19:28:32.248Z,23.40
2019-02-24T19:30:58.559Z,23.20
2019-02-24T19:33:24.895Z,22.03
2019-02-24T19:35:51.431Z,22.87
2019-02-24T19:38:17.646Z,23.00
2019-02-24T19:40:44.108Z,22.17
2019-02-24T19:43:10.396Z,22.30
2019-02-24T19:45:36.896Z,22.13
2019-02-24T19:48:03.180Z,21.30
2019-02-24T19:50:29.436Z,21.13
2019-02-24T19:52:55.710Z,21.13
2019-02-24T19:55:21.935Z,21.67
2019-02-24T19:57:48.396Z,22.53
2019-02-24T20:00:22.730Z,23.40
2019-02-24T20:02:49.056Z,21.73
2019-02-24T20:05:15.460Z,21.37
2019-02-24T20:07:41.777Z,27.77
2019-02-24T20:10:10.745Z,25.80
2019-02-24T20:12:37.057Z,26.00
2019-02-24T20:15:07.086Z,26.53
2019-02-24T20:17:33.497Z,24.87
2019-02-24T20:19:59.819Z,24.73
2019-02-24T20:22:26.098Z,26.53
2019-02-24T20:24:52.426Z,25.13
2019-02-24T20:27:18.741Z,24.23
2019-02-24T20:29:44.880Z,23.00
2019-02-24T20:32:11.338Z,24.90
2019-02-24T20:34:37.460Z,23.60
2019-02-24T20:37:04.008Z,24.63
2019-02-24T20:39:30.274Z,24.97
2019-02-24T20:41:56.567Z,24.13
2019-02-24T20:44:22.760Z,24.27
2019-02-24T20:46:49.052Z,22.37
2019-02-24T20:49:15.388Z,22.33
2019-02-24T20:51:42.722Z,25.97
2019-02-24T20:54:18.289Z,23.43
2019-02-24T20:56:44.800Z,26.50
2019-02-24T20:59:19.272Z,26.83
2019-02-24T21:01:45.838Z,25.80
2019-02-24T21:04:17.830Z,24.80
2019-02-24T21:06:44.102Z,24.07
2019-02-24T21:09:16.803Z,22.80
2019-02-24T21:11:43.045Z,23.13
2019-02-24T21:14:09.429Z,24.20
2019-02-24T21:16:35.754Z,23.43
2019-02-24T21:19:10.291Z,22.90
2019-02-24T21:21:36.631Z,22.80
2019-02-24T21:24:05.094Z,23.17
2019-02-24T21:26:31.605Z,22.53
2019-02-24T21:28:58.055Z,22.83
2019-02-24T21:31:24.343Z,23.57
2019-02-24T21:36:29.479Z,23.97
2019-02-24T21:38:55.830Z,23.43
2019-02-24T21:41:29.895Z,22.70
2019-02-24T21:43:57.285Z,23.40
2019-02-24T21:46:23.548Z,23.63
2019-02-24T21:48:57.241Z,22.50
2019-02-24T21:51:23.461Z,24.03
2019-02-24T21:53:51.863Z,24.13
2019-02-24T21:56:21.381Z,24.37
2019-02-24T21:58:50.597Z,24.13
2019-02-24T22:01:17.305Z,24.13
2019-02-24T22:03:43.640Z,23.03
2019-02-24T22:06:09.852Z,24.60
2019-02-24T22:08:36.096Z,24.23
2019-02-24T22:11:05.299Z,24.43
2019-02-24T22:13:31.565Z,24.23
2019-02-24T22:15:57.817Z,22.40
2019-02-24T22:18:24.240Z,24.03
2019-02-24T22:20:50.370Z,21.50
2019-02-24T22:23:16.751Z,21.77
2019-02-24T22:25:43.077Z,21.67
2019-02-24T22:28:09.379Z,23.17
2019-02-24T22:30:35.734Z,22.73
2019-02-24T22:33:02.056Z,21.77
2019-02-24T22:35:28.407Z,23.70
2019-02-24T22:37:54.696Z,24.73
2019-02-24T22:40:21.015Z,24.73
2019-02-24T22:42:47.136Z,24.50
2019-02-24T22:45:17.026Z,23.57
2019-02-24T22:47:44.045Z,21.60
2019-02-24T22:50:12.177Z,23.00
2019-02-24T22:52:38.414Z,21.70
2019-02-24T22:55:17.699Z,21.67
2019-02-24T22:57:44.017Z,22.10
2019-02-24T23:00:51.335Z,21.40
2019-02-24T23:03:21.185Z,20.73
2019-02-24T23:05:47.757Z,21.10
2019-02-24T23:08:15.444Z,20.63
2019-02-24T23:10:41.926Z,20.70
2019-02-24T23:13:08.369Z,23.73
2019-02-24T23:15:34.787Z,22.30
2019-02-24T23:18:04.673Z,22.13
2019-02-24T23:20:31.405Z,22.27
2019-02-24T23:22:57.886Z,22.53
2019-02-24T23:25:24.053Z,22.17
2019-02-24T23:27:50.462Z,22.37
2019-02-24T23:30:16.817Z,23.13
2019-02-24T23:32:43.243Z,23.70
2019-02-24T23:35:16.574Z,25.03
2019-02-24T23:37:42.826Z,23.93
2019-02-24T23:40:09.181Z,22.73
2019-02-24T23:42:35.411Z,24.23
2019-02-24T23:45:13.568Z,23.47
2019-02-24T23:47:39.772Z,22.80
2019-02-24T23:50:08.058Z,22.50
2019-02-24T23:52:34.151Z,22.83
2019-02-24T23:55:00.312Z,23.07
2019-02-24T23:57:27.618Z,22.57
2019-02-24T23:59:53.754Z,24.20
